createdAt,value
2017-05-03T00:00:20.494Z,72.35
2017-05-03T00:01:20.484Z,72.35
2017-05-03T00:02:20.474Z,72.45
2017-05-03T00:03:20.467Z,72.55
2017-05-03T00:04:20.152Z,72.39
2017-05-03T00:05:20.447Z,72.07
2017-05-03T00:06:20.438Z,71.59
2017-05-03T00:07:20.434Z,71.88
2017-05-03T00:08:20.421Z,71.97
2017-05-03T00:09:20.408Z,72.07
2017-05-03T00:10:20.397Z,72.16
2017-05-03T00:11:20.388Z,72.16
2017-05-03T00:12:20.381Z,72.64
2017-05-03T00:13:20.371Z,72.35
2017-05-03T00:14:20.360Z,72.35
2017-05-03T00:15:20.350Z,72.55
2017-05-03T00:16:20.340Z,72.35
2017-05-03T00:17:20.333Z,72.74
2017-05-03T00:18:20.323Z,72.74
2017-05-03T00:19:20.335Z,72.83
2017-05-03T00:20:20.301Z,72.64
2017-05-03T00:21:20.294Z,72.83
2017-05-03T00:22:20.284Z,72.55
2017-05-03T00:23:20.275Z,72.92
2017-05-03T00:24:20.266Z,72.64
2017-05-03T00:25:20.254Z,72.64
2017-05-03T00:26:20.247Z,72.64
2017-05-03T00:27:20.237Z,72.55
2017-05-03T00:28:20.227Z,72.74
2017-05-03T00:29:20.218Z,72.55
2017-05-03T00:30:20.206Z,72.26
2017-05-03T00:31:20.195Z,72.64
2017-05-03T00:32:20.186Z,72.74
2017-05-03T00:33:19.876Z,72.16
2017-05-03T00:34:20.167Z,72.55
2017-05-03T00:35:20.157Z,72.74
2017-05-03T00:36:20.147Z,72.64
2017-05-03T00:37:20.140Z,72.83
2017-05-03T00:38:20.170Z,72.92
2017-05-03T00:39:20.125Z,72.83
2017-05-03T00:40:20.112Z,72.64
2017-05-03T00:41:20.100Z,73.3
2017-05-03T00:42:19.788Z,73.02
2017-05-03T00:43:20.081Z,73.02
2017-05-03T00:44:20.071Z,72.83
2017-05-03T00:45:20.061Z,72.74
2017-05-03T00:46:20.050Z,72.74
2017-05-03T00:47:20.042Z,72.74
2017-05-03T00:48:20.036Z,72.74
2017-05-03T00:49:20.021Z,72.55
2017-05-03T00:50:20.013Z,73.11
2017-05-03T00:51:20.007Z,72.74
2017-05-03T00:52:19.691Z,72.55
2017-05-03T00:53:19.985Z,72.83
2017-05-03T00:54:19.975Z,72.83
2017-05-03T00:55:19.964Z,72.64
2017-05-03T00:56:19.956Z,72.92
2017-05-03T00:57:19.944Z,72.74
2017-05-03T00:58:19.937Z,72.74
2017-05-03T00:59:19.924Z,72.64
2017-05-03T01:00:19.913Z,73.02
2017-05-03T01:01:19.904Z,73.02
2017-05-03T01:02:19.899Z,72.74
2017-05-03T01:03:19.885Z,72.83
2017-05-03T01:04:19.875Z,72.92
2017-05-03T01:05:19.866Z,72.89
2017-05-03T01:06:19.855Z,72.89
2017-05-03T01:07:19.845Z,72.92
2017-05-03T01:08:19.845Z,73.49
2017-05-03T01:09:19.827Z,73.88
2017-05-03T01:10:19.818Z,73.49
2017-05-03T01:11:19.805Z,74.16
2017-05-03T01:12:19.795Z,73.78
2017-05-03T01:13:19.791Z,74.07
2017-05-03T01:14:19.778Z,74.07
2017-05-03T01:15:19.769Z,73.97
2017-05-03T01:16:19.756Z,74.35
2017-05-03T01:17:19.749Z,74.35
2017-05-03T01:18:19.738Z,74.16
2017-05-03T01:19:19.729Z,74.35
2017-05-03T01:20:19.720Z,74.1
2017-05-03T01:21:19.708Z,74.29
2017-05-03T01:22:19.698Z,74.1
2017-05-03T01:23:19.693Z,73.91
2017-05-03T01:24:19.685Z,74.01
2017-05-03T01:25:19.670Z,74.39
2017-05-03T01:26:19.687Z,74.39
2017-05-03T01:27:19.654Z,74.39
2017-05-03T01:28:19.643Z,73.82
2017-05-03T01:29:19.330Z,74.1
2017-05-03T01:30:19.320Z,74.01
2017-05-03T01:31:19.614Z,73.82
2017-05-03T01:32:19.606Z,74.1
2017-05-03T01:33:19.600Z,73.91
2017-05-03T01:34:19.589Z,74.1
2017-05-03T01:35:19.578Z,74.29
2017-05-03T01:36:19.573Z,73.72
2017-05-03T01:37:19.560Z,73.63
2017-05-03T01:38:19.550Z,73.72
2017-05-03T01:39:19.239Z,74.29
2017-05-03T01:40:19.529Z,74.2
2017-05-03T01:41:19.559Z,74.33
2017-05-03T01:42:19.544Z,74.24
2017-05-03T01:43:19.503Z,74.14
2017-05-03T01:44:19.493Z,74.24
2017-05-03T01:45:19.484Z,73.57
2017-05-03T01:46:19.475Z,73.66
2017-05-03T01:47:19.467Z,73.76
2017-05-03T01:48:19.457Z,73.76
2017-05-03T01:49:19.449Z,73.47
2017-05-03T01:50:19.138Z,73.85
2017-05-03T01:51:19.430Z,73.66
2017-05-03T01:52:19.420Z,73.76
2017-05-03T01:53:19.414Z,73.28
2017-05-03T01:54:19.412Z,73.76
2017-05-03T01:55:19.393Z,73.76
2017-05-03T01:56:19.389Z,73.76
2017-05-03T01:57:19.378Z,73.76
2017-05-03T01:58:19.369Z,73.66
2017-05-03T01:59:19.361Z,73.47
2017-05-03T02:00:19.350Z,73.76
2017-05-03T02:01:19.344Z,73.76
2017-05-03T02:02:19.332Z,73.57
2017-05-03T02:03:19.326Z,73.47
2017-05-03T02:04:19.317Z,73.61
2017-05-03T02:05:19.306Z,73.47
2017-05-03T02:06:19.296Z,73.61
2017-05-03T02:07:19.288Z,73.61
2017-05-03T02:08:19.280Z,73.61
2017-05-03T02:09:19.274Z,72.94
2017-05-03T02:10:19.262Z,73.13
2017-05-03T02:11:19.252Z,73.03
2017-05-03T02:12:19.248Z,73.13
2017-05-03T02:13:19.235Z,73.03
2017-05-03T02:14:19.229Z,73.03
2017-05-03T02:15:19.218Z,73.03
2017-05-03T02:16:19.210Z,73.03
2017-05-03T02:17:19.203Z,73.03
2017-05-03T02:18:19.195Z,72.85
2017-05-03T02:19:19.186Z,72.94
2017-05-03T02:20:19.426Z,73.22
2017-05-03T02:21:19.166Z,72.94
2017-05-03T02:22:19.160Z,73.03
2017-05-03T02:23:19.151Z,72.85
2017-05-03T02:24:19.151Z,73.13
2017-05-03T02:25:19.133Z,72.78
2017-05-03T02:26:19.124Z,72.88
2017-05-03T02:27:19.118Z,73.17
2017-05-03T02:28:19.109Z,73.22
2017-05-03T02:29:19.101Z,72.97
2017-05-03T02:30:19.093Z,72.78
2017-05-03T02:31:19.084Z,72.88
2017-05-03T02:32:19.074Z,72.21
2017-05-03T02:33:19.067Z,72.31
2017-05-03T02:34:19.058Z,72.31
2017-05-03T02:35:19.048Z,72.12
2017-05-03T02:36:19.041Z,71.64
2017-05-03T02:37:19.034Z,72.02
2017-05-03T02:38:19.025Z,72.31
2017-05-03T02:39:19.017Z,72.02
2017-05-03T02:40:19.009Z,72.02
2017-05-03T02:41:18.999Z,72.12
2017-05-03T02:42:18.993Z,72.21
2017-05-03T02:43:18.984Z,71.45
2017-05-03T02:44:18.975Z,71.36
2017-05-03T02:45:18.967Z,71.36
2017-05-03T02:46:18.962Z,71.45
2017-05-03T02:47:18.950Z,71.26
2017-05-03T02:48:18.944Z,71.26
2017-05-03T02:49:18.935Z,71.45
2017-05-03T02:50:18.925Z,71.36
2017-05-03T02:51:18.917Z,71.55
2017-05-03T02:52:18.910Z,71.55
2017-05-03T02:53:18.903Z,71.36
2017-05-03T02:54:18.894Z,71.36
2017-05-03T02:55:18.884Z,71.26
2017-05-03T02:56:18.879Z,71.26
2017-05-03T02:57:18.866Z,70.59
2017-05-03T02:58:18.860Z,70.78
2017-05-03T02:59:18.853Z,70.78
2017-05-03T03:00:18.845Z,70.69
2017-05-03T03:01:18.835Z,71.07
2017-05-03T03:02:18.827Z,70.4
2017-05-03T03:03:18.818Z,70.4
2017-05-03T03:04:18.813Z,70.59
2017-05-03T03:05:18.805Z,70.4
2017-05-03T03:06:18.795Z,70.5
2017-05-03T03:07:18.787Z,70.02
2017-05-03T03:08:18.779Z,70.69
2017-05-03T03:09:18.774Z,70.5
2017-05-03T03:10:18.762Z,70.4
2017-05-03T03:11:18.760Z,70.5
2017-05-03T03:12:18.746Z,70.4
2017-05-03T03:13:18.737Z,70.4
2017-05-03T03:14:18.732Z,70.78
2017-05-03T03:15:18.719Z,70.69
2017-05-03T03:16:18.715Z,70.21
2017-05-03T03:17:18.710Z,70.5
2017-05-03T03:18:18.721Z,70.5
2017-05-03T03:19:18.688Z,70.4
2017-05-03T03:20:18.684Z,70.31
2017-05-03T03:21:18.672Z,69.74
2017-05-03T03:22:18.665Z,69.74
2017-05-03T03:23:18.655Z,69.74
2017-05-03T03:24:18.649Z,70.02
2017-05-03T03:25:18.639Z,70.02
2017-05-03T03:26:18.666Z,69.74
2017-05-03T03:27:18.623Z,69.83
2017-05-03T03:28:18.617Z,69.74
2017-05-03T03:29:18.607Z,69.74
2017-05-03T03:30:18.598Z,69.74
2017-05-03T03:31:18.590Z,69.93
2017-05-03T03:32:18.583Z,69.64
2017-05-03T03:33:18.576Z,70.02
2017-05-03T03:34:18.566Z,69.93
2017-05-03T03:35:18.557Z,69.83
2017-05-03T03:36:18.549Z,70.02
2017-05-03T03:37:18.556Z,69.74
2017-05-03T03:38:18.534Z,69.74
2017-05-03T03:39:18.527Z,69.54
2017-05-03T03:40:18.521Z,69.07
2017-05-03T03:41:18.511Z,69.07
2017-05-03T03:42:18.500Z,69.07
2017-05-03T03:43:18.510Z,69.64
2017-05-03T03:44:18.189Z,69.35
2017-05-03T03:45:18.476Z,69.17
2017-05-03T03:46:18.471Z,69.17
2017-05-03T03:47:18.462Z,69.17
2017-05-03T03:48:18.456Z,69.17
2017-05-03T03:49:18.444Z,69.35
2017-05-03T03:50:18.440Z,69.26
2017-05-03T03:51:18.125Z,69.64
2017-05-03T03:52:18.117Z,69.45
2017-05-03T03:53:18.109Z,68.5
2017-05-03T03:54:18.108Z,68.88
2017-05-03T03:55:18.396Z,68.69
2017-05-03T03:56:18.388Z,68.98
2017-05-03T03:57:18.382Z,68.78
2017-05-03T03:58:18.373Z,68.98
2017-05-03T03:59:18.365Z,68.5
2017-05-03T04:00:18.354Z,68.4
2017-05-03T04:01:18.347Z,68.5
2017-05-03T04:02:18.341Z,68.4
2017-05-03T04:03:18.332Z,68.78
2017-05-03T04:04:18.322Z,68.4
2017-05-03T04:05:18.316Z,68.78
2017-05-03T04:06:18.312Z,68.69
2017-05-03T04:07:18.301Z,68.69
2017-05-03T04:08:18.290Z,68.59
2017-05-03T04:09:18.284Z,68.5
2017-05-03T04:10:18.274Z,68.5
2017-05-03T04:11:18.267Z,68.88
2017-05-03T04:12:18.259Z,68.3
2017-05-03T04:13:18.249Z,68.02
2017-05-03T04:14:17.939Z,68.15
2017-05-03T04:15:18.242Z,68.15
2017-05-03T04:16:18.228Z,68.24
2017-05-03T04:17:18.222Z,67.83
2017-05-03T04:18:18.210Z,67.83
2017-05-03T04:19:17.899Z,68.05
2017-05-03T04:20:18.193Z,67.86
2017-05-03T04:21:18.185Z,67.77
2017-05-03T04:22:18.177Z,67.68
2017-05-03T04:23:18.169Z,68.02
2017-05-03T04:24:18.162Z,68.12
2017-05-03T04:25:17.850Z,68.21
2017-05-03T04:26:18.148Z,68.12
2017-05-03T04:27:18.136Z,67.83
2017-05-03T04:28:18.130Z,67.93
2017-05-03T04:29:18.120Z,68.02
2017-05-03T04:30:18.114Z,67.74
2017-05-03T04:31:18.108Z,67.74
2017-05-03T04:32:18.097Z,68.12
2017-05-03T04:33:18.090Z,68.02
2017-05-03T04:34:18.080Z,67.96
2017-05-03T04:35:18.072Z,67.74
2017-05-03T04:36:18.065Z,67.55
2017-05-03T04:37:18.056Z,67.68
2017-05-03T04:38:17.746Z,66.78
2017-05-03T04:39:18.041Z,67.26
2017-05-03T04:40:18.034Z,67.07
2017-05-03T04:41:18.027Z,67.26
2017-05-03T04:42:18.016Z,67.26
2017-05-03T04:43:18.009Z,66.78
2017-05-03T04:44:18.001Z,67.35
2017-05-03T04:45:17.992Z,67.45
2017-05-03T04:46:17.682Z,66.97
2017-05-03T04:47:17.977Z,67.16
2017-05-03T04:48:17.976Z,67.35
2017-05-03T04:49:17.961Z,67.45
2017-05-03T04:50:17.954Z,67.29
2017-05-03T04:51:17.946Z,67.93
2017-05-03T04:52:17.937Z,66.91
2017-05-03T04:53:17.929Z,67
2017-05-03T04:54:17.922Z,66.59
2017-05-03T04:55:17.914Z,67.77
2017-05-03T04:56:17.909Z,67.48
2017-05-03T04:57:17.898Z,67.48
2017-05-03T04:58:17.889Z,67.1
2017-05-03T04:59:17.880Z,66.91
2017-05-03T05:00:17.874Z,66.34
2017-05-03T05:01:17.865Z,65.86
2017-05-03T05:02:17.556Z,66.05
2017-05-03T05:03:17.850Z,66.34
2017-05-03T05:04:17.840Z,66.72
2017-05-03T05:05:17.833Z,66.91
2017-05-03T05:06:17.825Z,66.53
2017-05-03T05:07:17.819Z,66.24
2017-05-03T05:08:17.809Z,66.34
2017-05-03T05:09:17.802Z,66.15
2017-05-03T05:10:17.793Z,65.77
2017-05-03T05:11:17.485Z,66.24
2017-05-03T05:12:17.778Z,66.53
2017-05-03T05:13:17.775Z,66.05
2017-05-03T05:14:17.765Z,65.86
2017-05-03T05:15:17.453Z,65.96
2017-05-03T05:16:17.748Z,65.96
2017-05-03T05:17:17.740Z,66.05
2017-05-03T05:18:17.733Z,65.86
2017-05-03T05:19:17.424Z,65.77
2017-05-03T05:20:17.414Z,66.05
2017-05-03T05:21:17.407Z,66.05
2017-05-03T05:22:17.400Z,65.77
2017-05-03T05:23:17.694Z,65.48
2017-05-03T05:24:17.385Z,65.29
2017-05-03T05:25:17.412Z,64.62
2017-05-03T05:26:17.370Z,64.72
2017-05-03T05:27:17.364Z,65.1
2017-05-03T05:28:17.658Z,65.29
2017-05-03T05:29:17.348Z,65.89
2017-05-03T05:30:17.340Z,65.8
2017-05-03T05:31:17.637Z,65.7
2017-05-03T05:32:17.326Z,65.99
2017-05-03T05:33:17.318Z,65.52
2017-05-03T05:34:17.310Z,64.65
2017-05-03T05:35:17.303Z,64.56
2017-05-03T05:36:17.297Z,64.75
2017-05-03T05:37:17.291Z,64.75
2017-05-03T05:38:17.592Z,65.04
2017-05-03T05:39:17.587Z,64.65
2017-05-03T05:40:17.269Z,64.47
2017-05-03T05:41:17.563Z,64.75
2017-05-03T05:42:17.568Z,64.37
2017-05-03T05:43:17.558Z,64.56
2017-05-03T05:44:17.544Z,64.56
2017-05-03T05:45:17.547Z,64.56
2017-05-03T05:46:17.530Z,64.75
2017-05-03T05:47:17.521Z,64.37
2017-05-03T05:48:17.514Z,64.37
2017-05-03T05:49:17.506Z,63.99
2017-05-03T05:50:17.509Z,64.18
2017-05-03T05:51:17.494Z,63.8
2017-05-03T05:52:17.184Z,64.18
2017-05-03T05:53:17.487Z,64.18
2017-05-03T05:54:17.481Z,63.73
2017-05-03T05:55:17.473Z,64.31
2017-05-03T05:56:17.467Z,63.64
2017-05-03T05:57:17.464Z,62.68
2017-05-03T05:58:17.143Z,63.64
2017-05-03T05:59:17.136Z,62.59
2017-05-03T06:00:17.443Z,62.68
2017-05-03T06:01:17.122Z,62.88
2017-05-03T06:02:17.427Z,62.59
2017-05-03T06:03:17.413Z,62.88
2017-05-03T06:04:17.404Z,63.16
2017-05-03T06:05:17.400Z,62.97
2017-05-03T06:06:17.393Z,62.88
2017-05-03T06:07:17.387Z,62.97
2017-05-03T06:08:17.383Z,62.97
2017-05-03T06:09:17.373Z,62.68
2017-05-03T06:10:17.367Z,62.3
2017-05-03T06:11:17.361Z,63
2017-05-03T06:12:17.355Z,63.2
2017-05-03T06:13:17.350Z,63
2017-05-03T06:14:17.343Z,62.91
2017-05-03T06:15:17.345Z,63.2
2017-05-03T06:16:17.333Z,62.81
2017-05-03T06:17:17.021Z,63
2017-05-03T06:18:17.318Z,63.2
2017-05-03T06:19:17.312Z,62.52
2017-05-03T06:20:17.306Z,62.15
2017-05-03T06:21:17.300Z,62.62
2017-05-03T06:22:17.295Z,62.15
2017-05-03T06:23:16.987Z,62.24
2017-05-03T06:24:17.283Z,62.52
2017-05-03T06:25:17.275Z,62.15
2017-05-03T06:26:17.270Z,62.34
2017-05-03T06:27:17.264Z,62.34
2017-05-03T06:28:17.260Z,61.95
2017-05-03T06:29:17.250Z,62.34
2017-05-03T06:30:17.244Z,61.66
2017-05-03T06:31:17.278Z,61.83
2017-05-03T06:32:17.233Z,62.43
2017-05-03T06:33:17.228Z,62.4
2017-05-03T06:34:17.222Z,61.95
2017-05-03T06:35:17.219Z,62.52
2017-05-03T06:36:17.210Z,62.71
2017-05-03T06:37:17.202Z,62.21
2017-05-03T06:38:17.197Z,62.11
2017-05-03T06:39:17.193Z,62.4
2017-05-03T06:40:17.184Z,62.68
2017-05-03T06:41:17.179Z,62.49
2017-05-03T06:42:17.173Z,62.59
2017-05-03T06:43:17.166Z,62.21
2017-05-03T06:44:17.158Z,62.21
2017-05-03T06:45:17.152Z,62.59
2017-05-03T06:46:17.148Z,62.11
2017-05-03T06:47:17.141Z,62.49
2017-05-03T06:48:17.136Z,61.86
2017-05-03T06:49:17.131Z,62.59
2017-05-03T06:50:17.125Z,61.83
2017-05-03T06:51:17.117Z,62.3
2017-05-03T06:52:17.111Z,62.11
2017-05-03T06:53:17.108Z,62.11
2017-05-03T06:54:17.100Z,61.54
2017-05-03T06:55:17.092Z,62.49
2017-05-03T06:56:16.783Z,61.92
2017-05-03T06:57:17.080Z,61.92
2017-05-03T06:58:17.074Z,62.02
2017-05-03T06:59:17.075Z,61.44
2017-05-03T07:00:17.062Z,62.21
2017-05-03T07:01:17.060Z,62.34
2017-05-03T07:02:17.051Z,62.24
2017-05-03T07:03:17.047Z,61.73
2017-05-03T07:04:17.040Z,61.86
2017-05-03T07:05:17.036Z,62.15
2017-05-03T07:06:17.029Z,62.52
2017-05-03T07:07:17.022Z,61.66
2017-05-03T07:08:17.048Z,61.76
2017-05-03T07:09:17.011Z,61.19
2017-05-03T07:10:17.006Z,62.34
2017-05-03T07:11:17.000Z,61.92
2017-05-03T07:12:16.993Z,62.3
2017-05-03T07:13:16.986Z,61.83
2017-05-03T07:14:16.983Z,61.66
2017-05-03T07:15:16.672Z,61.47
2017-05-03T07:16:16.971Z,62.52
2017-05-03T07:17:16.965Z,62.43
2017-05-03T07:18:16.958Z,62.43
2017-05-03T07:19:16.958Z,61.76
2017-05-03T07:20:16.945Z,62.05
2017-05-03T07:21:16.939Z,61.76
2017-05-03T07:22:16.936Z,61.38
2017-05-03T07:23:16.930Z,61.79
2017-05-03T07:24:16.923Z,62.27
2017-05-03T07:25:16.916Z,61.6
2017-05-03T07:26:16.913Z,61.51
2017-05-03T07:27:16.906Z,61.79
2017-05-03T07:28:16.900Z,61.92
2017-05-03T07:29:16.895Z,61.82
2017-05-03T07:30:16.890Z,61.6
2017-05-03T07:31:16.583Z,61.63
2017-05-03T07:32:16.879Z,61.69
2017-05-03T07:33:16.875Z,61.22
2017-05-03T07:34:16.870Z,61.41
2017-05-03T07:35:16.862Z,61.32
2017-05-03T07:36:16.554Z,61.41
2017-05-03T07:37:16.549Z,61.19
2017-05-03T07:38:16.850Z,61.1
2017-05-03T07:39:16.539Z,61.29
2017-05-03T07:40:16.835Z,61.6
2017-05-03T07:41:16.832Z,61.66
2017-05-03T07:42:17.170Z,61.79
2017-05-03T07:43:16.821Z,61.13
2017-05-03T07:44:16.511Z,62.46
2017-05-03T07:45:16.813Z,61.6
2017-05-03T07:46:16.803Z,62.08
2017-05-03T07:47:16.495Z,61.6
2017-05-03T07:48:16.793Z,61.22
2017-05-03T07:49:16.487Z,61.13
2017-05-03T07:50:16.782Z,61
2017-05-03T07:51:16.778Z,61.03
2017-05-03T07:52:16.773Z,61.41
2017-05-03T07:53:16.465Z,62.37
2017-05-03T07:54:16.458Z,61.22
2017-05-03T07:55:16.759Z,62.3
2017-05-03T07:56:16.753Z,61.25
2017-05-03T07:57:16.747Z,61.51
2017-05-03T07:58:16.742Z,61.51
2017-05-03T07:59:16.432Z,61.32
2017-05-03T08:00:16.430Z,60.93
2017-05-03T08:01:16.727Z,61.41
2017-05-03T08:02:16.418Z,61.6
2017-05-03T08:03:16.723Z,60.84
2017-05-03T08:04:16.408Z,60.81
2017-05-03T08:05:16.403Z,61.03
2017-05-03T08:06:16.703Z,61.79
2017-05-03T08:07:16.695Z,61.6
2017-05-03T08:08:16.693Z,61.89
2017-05-03T08:09:16.688Z,61.69
2017-05-03T08:10:16.382Z,61.22
2017-05-03T08:11:16.375Z,61.44
2017-05-03T08:12:16.677Z,61.16
2017-05-03T08:13:16.676Z,61.06
2017-05-03T08:14:16.665Z,62.21
2017-05-03T08:15:16.357Z,61.57
2017-05-03T08:16:16.351Z,60.8
2017-05-03T08:17:16.355Z,60.9
2017-05-03T08:18:16.345Z,62.17
2017-05-03T08:19:16.339Z,61.88
2017-05-03T08:20:16.372Z,61.12
2017-05-03T08:21:16.331Z,60.86
2017-05-03T08:22:16.328Z,61.25
2017-05-03T08:23:16.324Z,61.57
2017-05-03T08:24:16.323Z,61.85
2017-05-03T08:25:16.318Z,61.88
2017-05-03T08:26:16.620Z,60.83
2017-05-03T08:27:16.620Z,60.73
2017-05-03T08:28:16.611Z,60.83
2017-05-03T08:29:16.611Z,60.73
2017-05-03T08:30:16.604Z,60.83
2017-05-03T08:31:16.602Z,60.64
2017-05-03T08:32:16.600Z,60.54
2017-05-03T08:33:16.599Z,60.32
2017-05-03T08:34:16.599Z,60.41
2017-05-03T08:35:16.593Z,60.67
2017-05-03T08:36:16.592Z,59.91
2017-05-03T08:37:16.585Z,60.77
2017-05-03T08:38:16.581Z,60.67
2017-05-03T08:39:16.276Z,60.77
2017-05-03T08:40:16.577Z,60.77
2017-05-03T08:41:16.576Z,60.58
2017-05-03T08:42:16.268Z,60.41
2017-05-03T08:43:16.569Z,60.67
2017-05-03T08:44:16.261Z,60.38
2017-05-03T08:45:16.563Z,60.89
2017-05-03T08:46:16.562Z,60.51
2017-05-03T08:47:16.558Z,60.89
2017-05-03T08:48:16.554Z,60.41
2017-05-03T08:49:16.558Z,60.44
2017-05-03T08:50:16.547Z,60.64
2017-05-03T08:51:16.547Z,60.93
2017-05-03T08:52:16.544Z,59.8
2017-05-03T08:53:16.546Z,59.71
2017-05-03T08:54:16.540Z,60.28
2017-05-03T08:55:16.537Z,59.83
2017-05-03T08:56:16.532Z,59.64
2017-05-03T08:57:16.231Z,59.74
2017-05-03T08:58:16.528Z,59.74
2017-05-03T08:59:16.523Z,59.55
2017-05-03T09:00:16.522Z,59.83
2017-05-03T09:01:16.546Z,59.45
2017-05-03T09:02:16.519Z,59.55
2017-05-03T09:03:16.528Z,59.74
2017-05-03T09:04:16.215Z,59.06
2017-05-03T09:05:16.514Z,59.26
2017-05-03T09:06:16.508Z,59.06
2017-05-03T09:07:16.506Z,59.64
2017-05-03T09:08:16.507Z,59.16
2017-05-03T09:09:16.507Z,59.26
2017-05-03T09:10:16.195Z,58.97
2017-05-03T09:11:16.497Z,59.26
2017-05-03T09:12:16.493Z,59.06
2017-05-03T09:13:16.493Z,58.87
2017-05-03T09:14:16.184Z,59.42
2017-05-03T09:15:16.486Z,59.42
2017-05-03T09:16:16.484Z,59.52
2017-05-03T09:17:16.178Z,59.42
2017-05-03T09:18:16.479Z,59.33
2017-05-03T09:19:16.482Z,59.42
2017-05-03T09:20:16.475Z,58.94
2017-05-03T09:21:16.472Z,59.42
2017-05-03T09:22:16.469Z,59.42
2017-05-03T09:23:16.467Z,58.87
2017-05-03T09:24:16.463Z,58.87
2017-05-03T09:25:16.462Z,59.55
2017-05-03T09:26:16.460Z,58.59
2017-05-03T09:27:16.457Z,59.06
2017-05-03T09:28:16.456Z,58.49
2017-05-03T09:29:16.149Z,58.78
2017-05-03T09:30:16.148Z,59.16
2017-05-03T09:31:16.447Z,59.06
2017-05-03T09:32:16.445Z,58.78
2017-05-03T09:33:16.440Z,59.16
2017-05-03T09:34:16.138Z,59.09
2017-05-03T09:35:16.441Z,58.33
2017-05-03T09:36:16.437Z,58.62
2017-05-03T09:37:16.132Z,58.33
2017-05-03T09:38:16.429Z,58.33
2017-05-03T09:39:16.427Z,58.71
2017-05-03T09:40:16.425Z,58.14
2017-05-03T09:41:16.426Z,58.14
2017-05-03T09:42:16.424Z,58.07
2017-05-03T09:43:16.418Z,57.78
2017-05-03T09:44:16.420Z,57.59
2017-05-03T09:45:16.114Z,58
2017-05-03T09:46:16.414Z,57.43
2017-05-03T09:47:16.412Z,57.17
2017-05-03T09:48:16.413Z,56.68
2017-05-03T09:49:16.108Z,56.68
2017-05-03T09:50:16.409Z,56.78
2017-05-03T09:51:16.410Z,56.23
2017-05-03T09:52:16.409Z,56.21
2017-05-03T09:53:16.104Z,56.14
2017-05-03T09:54:16.404Z,56.33
2017-05-03T09:55:16.406Z,56.43
2017-05-03T09:56:16.103Z,55.94
2017-05-03T09:57:16.404Z,55.3
2017-05-03T09:58:16.407Z,54.43
2017-05-03T09:59:16.403Z,54.63
2017-05-03T10:00:16.101Z,55.01
2017-05-03T10:01:16.404Z,54.91
2017-05-03T10:02:16.401Z,54.91
2017-05-03T10:03:16.407Z,54.85
2017-05-03T10:04:16.405Z,53.88
2017-05-03T10:05:16.407Z,53.88
2017-05-03T10:06:16.403Z,53.5
2017-05-03T10:07:16.403Z,53.62
2017-05-03T10:08:16.405Z,53.69
2017-05-03T10:09:16.405Z,53.62
2017-05-03T10:10:16.445Z,53.53
2017-05-03T10:11:16.409Z,53.81
2017-05-03T10:12:16.105Z,52.97
2017-05-03T10:13:16.410Z,52.69
2017-05-03T10:14:16.109Z,52.11
2017-05-03T10:15:16.411Z,52.08
2017-05-03T10:16:16.410Z,53.05
2017-05-03T10:17:16.415Z,53.72
2017-05-03T10:18:16.413Z,53.43
2017-05-03T10:19:16.413Z,53.78
2017-05-03T10:20:16.419Z,53.4
2017-05-03T10:21:16.416Z,53.5
2017-05-03T10:22:16.419Z,53.31
2017-05-03T10:23:16.419Z,53.88
2017-05-03T10:24:16.418Z,53.59
2017-05-03T10:25:16.419Z,53.59
2017-05-03T10:26:16.422Z,53.4
2017-05-03T10:27:16.117Z,53.21
2017-05-03T10:28:16.420Z,53.31
2017-05-03T10:29:16.117Z,53.5
2017-05-03T10:30:16.118Z,53.78
2017-05-03T10:31:16.420Z,53.69
2017-05-03T10:32:16.118Z,53.78
2017-05-03T10:33:16.423Z,53.31
2017-05-03T10:34:16.424Z,52.73
2017-05-03T10:35:16.423Z,52.92
2017-05-03T10:36:16.423Z,53.76
2017-05-03T10:37:16.430Z,53.57
2017-05-03T10:38:16.424Z,54.79
2017-05-03T10:39:16.427Z,54.99
2017-05-03T10:40:16.425Z,54.41
2017-05-03T10:41:16.123Z,54.69
2017-05-03T10:42:16.426Z,55.08
2017-05-03T10:43:16.427Z,55.37
2017-05-03T10:44:16.425Z,56.01
2017-05-03T10:45:16.425Z,56.21
2017-05-03T10:46:16.426Z,56.49
2017-05-03T10:47:16.425Z,56.4
2017-05-03T10:48:16.425Z,56.4
2017-05-03T10:49:16.425Z,56.98
2017-05-03T10:50:16.425Z,56.78
2017-05-03T10:51:16.431Z,56.88
2017-05-03T10:52:16.422Z,56.78
2017-05-03T10:53:16.447Z,56.98
2017-05-03T10:54:16.420Z,57.17
2017-05-03T10:55:16.119Z,56.21
2017-05-03T10:56:16.422Z,55.91
2017-05-03T10:57:16.420Z,56.4
2017-05-03T10:58:16.420Z,56.78
2017-05-03T10:59:16.419Z,56.68
2017-05-03T11:00:16.421Z,57.07
2017-05-03T11:01:16.419Z,57.62
2017-05-03T11:02:16.418Z,57.81
2017-05-03T11:03:16.416Z,57.97
2017-05-03T11:04:16.414Z,57.68
2017-05-03T11:05:16.416Z,57.81
2017-05-03T11:06:16.415Z,58
2017-05-03T11:07:16.413Z,58.29
2017-05-03T11:08:16.412Z,58.17
2017-05-03T11:09:16.415Z,58
2017-05-03T11:10:16.413Z,57.81
2017-05-03T11:11:16.106Z,57.71
2017-05-03T11:12:16.106Z,58
2017-05-03T11:13:16.411Z,58.29
2017-05-03T11:14:16.409Z,58
2017-05-03T11:15:16.406Z,57.84
2017-05-03T11:16:16.102Z,57.17
2017-05-03T11:17:16.102Z,56.59
2017-05-03T11:18:16.404Z,56.33
2017-05-03T11:19:16.099Z,56.04
2017-05-03T11:20:16.403Z,56.43
2017-05-03T11:21:16.405Z,56.33
2017-05-03T11:22:16.097Z,56.14
2017-05-03T11:23:16.096Z,55.94
2017-05-03T11:24:16.402Z,56.14
2017-05-03T11:25:16.095Z,55.66
2017-05-03T11:26:16.097Z,55.18
2017-05-03T11:27:16.397Z,54.79
2017-05-03T11:28:16.400Z,54.6
2017-05-03T11:29:16.398Z,54.5
2017-05-03T11:30:16.093Z,54.89
2017-05-03T11:31:16.397Z,54.86
2017-05-03T11:32:16.396Z,55.15
2017-05-03T11:33:16.091Z,55.91
2017-05-03T11:34:16.397Z,56.01
2017-05-03T11:35:16.393Z,55.44
2017-05-03T11:36:16.390Z,55.05
2017-05-03T11:37:16.393Z,54.67
2017-05-03T11:38:16.389Z,54.96
2017-05-03T11:39:16.388Z,55.05
2017-05-03T11:40:16.390Z,55.24
2017-05-03T11:41:16.386Z,55.44
2017-05-03T11:42:16.082Z,55.37
2017-05-03T11:43:16.387Z,55.27
2017-05-03T11:44:16.384Z,55.82
2017-05-03T11:45:16.382Z,55.05
2017-05-03T11:46:16.381Z,55.44
2017-05-03T11:47:16.075Z,54.89
2017-05-03T11:48:16.383Z,54.99
2017-05-03T11:49:16.379Z,54.99
2017-05-03T11:50:16.379Z,55.18
2017-05-03T11:51:16.377Z,54.79
2017-05-03T11:52:16.378Z,54.6
2017-05-03T11:53:16.378Z,54.89
2017-05-03T11:54:16.374Z,54.69
2017-05-03T11:55:16.374Z,54.22
2017-05-03T11:56:16.374Z,53.54
2017-05-03T11:57:16.379Z,53.45
2017-05-03T11:58:16.373Z,53.64
2017-05-03T11:59:16.374Z,54
2017-05-03T12:00:16.371Z,54.86
2017-05-03T12:01:16.374Z,55.05
2017-05-03T12:02:16.369Z,54.93
2017-05-03T12:03:16.370Z,55.41
2017-05-03T12:04:16.369Z,56.15
2017-05-03T12:05:16.366Z,56.63
2017-05-03T12:06:16.368Z,56.92
2017-05-03T12:07:16.365Z,57.4
2017-05-03T12:08:16.368Z,57.59
2017-05-03T12:09:16.364Z,56.73
2017-05-03T12:10:16.362Z,55.96
2017-05-03T12:11:16.361Z,55.96
2017-05-03T12:12:16.360Z,56.53
2017-05-03T12:13:16.360Z,56.44
2017-05-03T12:14:16.357Z,56.63
2017-05-03T12:15:16.359Z,56.34
2017-05-03T12:16:16.354Z,56.73
2017-05-03T12:17:16.351Z,56.44
2017-05-03T12:18:16.350Z,56.66
2017-05-03T12:19:16.354Z,56.66
2017-05-03T12:20:16.348Z,56.46
2017-05-03T12:21:16.347Z,56.21
2017-05-03T12:22:16.349Z,56.21
2017-05-03T12:23:16.344Z,55.63
2017-05-03T12:24:16.341Z,56.11
2017-05-03T12:25:16.339Z,56.21
2017-05-03T12:26:16.341Z,56.11
2017-05-03T12:27:16.034Z,55.56
2017-05-03T12:28:16.336Z,55.46
2017-05-03T12:29:16.334Z,55.08
2017-05-03T12:30:16.334Z,55.15
2017-05-03T12:31:16.332Z,55.53
2017-05-03T12:32:16.027Z,56.21
2017-05-03T12:33:16.329Z,56.11
2017-05-03T12:34:16.334Z,55.89
2017-05-03T12:35:16.327Z,55.99
2017-05-03T12:36:16.334Z,56.53
2017-05-03T12:37:16.324Z,57.01
2017-05-03T12:38:16.323Z,57.97
2017-05-03T12:39:16.322Z,58.14
2017-05-03T12:40:16.318Z,58.04
2017-05-03T12:41:16.317Z,58.23
2017-05-03T12:42:16.012Z,58.52
2017-05-03T12:43:16.313Z,57.08
2017-05-03T12:44:16.010Z,56.73
2017-05-03T12:45:16.309Z,56.34
2017-05-03T12:46:16.309Z,55.89
2017-05-03T12:47:16.309Z,56.08
2017-05-03T12:48:16.305Z,55.51
2017-05-03T12:49:16.304Z,55.99
2017-05-03T12:50:16.301Z,55.89
2017-05-03T12:51:15.996Z,55.12
2017-05-03T12:52:16.297Z,55.32
2017-05-03T12:53:15.991Z,54.93
2017-05-03T12:54:16.293Z,55.51
2017-05-03T12:55:16.294Z,54.93